createdAt,value
2024-03-19T00:12:56.802Z,66
2024-03-19T00:31:23.543Z,61.9
2024-03-19T00:46:49.949Z,64.7
2024-03-19T01:02:14.287Z,65.1
2024-03-19T01:17:38.994Z,65.2
2024-03-19T01:33:04.356Z,65.3
2024-03-19T01:48:29.054Z,65.4
2024-03-19T02:03:53.833Z,65.6
2024-03-19T02:19:18.849Z,65.5
2024-03-19T02:34:43.332Z,65.7
2024-03-19T02:50:08.699Z,65.6
2024-03-19T03:05:33.904Z,65.7
2024-03-19T03:20:58.748Z,65.8
2024-03-19T03:36:23.230Z,66
2024-03-19T03:51:48.361Z,65.5
2024-03-19T04:07:12.468Z,66.3
2024-03-19T04:22:37.700Z,66.7
2024-03-19T04:38:02.272Z,66.5
2024-03-19T04:53:27.033Z,67
2024-03-19T05:08:52.044Z,66.8
2024-03-19T05:24:16.897Z,66.9
2024-03-19T05:39:41.124Z,67
2024-03-19T05:55:06.183Z,67
2024-03-19T06:10:31.690Z,67
2024-03-19T06:25:56.380Z,67.1
2024-03-19T06:41:21.329Z,67
2024-03-19T06:56:46.103Z,66.9
2024-03-19T07:12:11.137Z,66.6
2024-03-19T07:27:36.109Z,66.4
2024-03-19T07:43:01.641Z,66.4
2024-03-19T07:58:26.458Z,66.2
2024-03-19T08:13:51.306Z,65.9
2024-03-19T08:29:16.713Z,65.7
2024-03-19T08:44:42.240Z,65.8
2024-03-19T09:00:07.507Z,65.8
2024-03-19T09:15:33.158Z,65.5
2024-03-19T09:30:58.018Z,65.5
2024-03-19T09:46:23.334Z,65.7
2024-03-19T10:01:48.196Z,65.8
2024-03-19T10:17:13.705Z,65.8
2024-03-19T10:32:39.168Z,65.8
2024-03-19T10:48:04.160Z,65.8
2024-03-19T11:03:29.288Z,65.6
2024-03-19T11:18:54.864Z,65.5
2024-03-19T11:34:20.403Z,65.4
2024-03-19T11:49:46.465Z,65
2024-03-19T12:05:11.510Z,64.6
2024-03-19T12:20:39.259Z,60.1
2024-03-19T12:36:04.228Z,61.2
2024-03-19T12:51:29.721Z,61.6
2024-03-19T13:06:54.316Z,63.2
2024-03-19T13:22:19.351Z,64.7
2024-03-19T13:37:44.403Z,65.3
2024-03-19T13:53:10.221Z,64.9
2024-03-19T14:08:35.621Z,64.5
2024-03-19T14:24:01.270Z,64.6
2024-03-19T14:39:26.304Z,64.7
2024-03-19T14:54:51.364Z,65
2024-03-19T15:10:16.638Z,65.4
2024-03-19T15:25:41.745Z,65.7
2024-03-19T15:41:06.724Z,65.9
2024-03-19T15:56:31.641Z,65.9
2024-03-19T16:11:56.463Z,66.2
2024-03-19T16:27:22.523Z,66.3
2024-03-19T16:42:50.215Z,66.4
2024-03-19T16:58:15.684Z,66.5
2024-03-19T17:13:40.846Z,66.7
2024-03-19T17:29:05.705Z,66.9
2024-03-19T17:44:30.529Z,67.2
2024-03-19T17:59:55.797Z,67.5
2024-03-19T18:15:20.555Z,67.9
2024-03-19T18:30:44.958Z,68.3
2024-03-19T18:46:09.752Z,68.6
2024-03-19T19:01:34.840Z,68.8
2024-03-19T19:16:59.893Z,69.1
2024-03-19T19:32:24.813Z,69.3
2024-03-19T19:47:49.738Z,69.5
2024-03-19T20:03:15.206Z,69.6
2024-03-19T20:18:40.280Z,69.7
2024-03-19T20:34:05.001Z,69.8
2024-03-19T20:49:30.134Z,69.9
2024-03-19T21:04:55.088Z,69.9
2024-03-19T21:20:20.376Z,70
2024-03-19T21:35:45.822Z,70.1
2024-03-19T21:51:09.755Z,70.2
2024-03-19T22:06:34.423Z,70.3
2024-03-19T22:21:59.249Z,70.6
2024-03-19T22:37:24.080Z,70.8
2024-03-19T22:52:48.982Z,71
2024-03-19T23:08:13.314Z,70.8
2024-03-19T23:23:38.142Z,70.7
2024-03-19T23:39:02.825Z,70.6
2024-03-19T23:54:28.135Z,70.7
